Time;durP1;ratioP1;P1;durP2;ratioP2;P2;SDS_P1;SDS_P2;PMS_P1;PMS_P2;Temp;Humidity;BMP_temperature;BMP_pressure;BME280_temperature;BME280_humidity;BME280_pressure;Samples;Min_cycle;Max_cycle;Signal;HPM_P1;HPM_P2
2024/02/05 00:00:12;;;;;;;8.43;2.83;;;10.80;18.40;;;;;;4935622;28;20073;-88
2024/02/05 00:02:39;;;;;;;5.63;2.38;;;10.80;12.60;;;;;;4950696;28;20046;-88
2024/02/05 00:05:08;;;;;;;6.53;2.42;;;10.80;11.80;;;;;;4937798;28;20054;-88
2024/02/05 00:07:36;;;;;;;5.57;2.35;;;10.80;13.10;;;;;;4958566;28;20125;-88
2024/02/05 00:10:07;;;;;;;7.30;3.50;;;10.80;16.00;;;;;;4954954;28;20058;-88
2024/02/05 00:12:35;;;;;;;6.80;3.47;;;10.80;21.50;;;;;;4936079;28;20062;-87
2024/02/05 00:15:04;;;;;;;5.22;2.03;;;10.80;18.10;;;;;;4966602;28;20149;-87
2024/02/05 00:17:31;;;;;;;5.20;1.90;;;10.80;7.80;;;;;;4927815;28;20133;-87
2024/02/05 00:19:59;;;;;;;8.65;2.10;;;10.70;13.20;;;;;;4934714;28;20521;-87
2024/02/05 00:22:27;;;;;;;7.15;2.47;;;10.70;10.50;;;;;;4935967;28;20054;-88
2024/02/05 00:24:54;;;;;;;2.65;1.80;;;10.70;14.80;;;;;;4935472;28;20490;-88
2024/02/05 00:27:22;;;;;;;8.73;2.72;;;10.70;13.80;;;;;;4940358;28;20046;-88
2024/02/05 00:29:49;;;;;;;4.65;1.85;;;10.70;12.30;;;;;;4940434;28;20052;-87
2024/02/05 00:32:16;;;;;;;6.25;2.72;;;10.70;12.00;;;;;;4965576;28;20055;-88
2024/02/05 00:34:44;;;;;;;11.00;2.53;;;10.70;9.20;;;;;;4943230;28;20043;-87
2024/02/05 00:37:11;;;;;;;4.78;1.95;;;10.70;14.00;;;;;;4934921;28;20057;-88
2024/02/05 00:39:38;;;;;;;7.50;2.65;;;10.70;13.80;;;;;;4967569;28;20293;-88
2024/02/05 00:42:05;;;;;;;5.90;2.22;;;10.70;14.50;;;;;;4970716;28;20062;-88
2024/02/05 00:44:32;;;;;;;4.43;1.77;;;10.70;10.40;;;;;;4937702;28;20054;-88
2024/02/05 00:47:00;;;;;;;3.20;1.48;;;10.80;13.40;;;;;;4957520;28;20222;-87
2024/02/05 00:49:28;;;;;;;6.45;2.33;;;10.70;11.30;;;;;;4957610;28;20108;-88
2024/02/05 00:51:55;;;;;;;6.53;2.47;;;10.70;8.10;;;;;;4946842;28;20125;-88
2024/02/05 00:54:23;;;;;;;3.97;1.67;;;10.70;12.70;;;;;;4944068;28;20160;-88
2024/02/05 00:56:51;;;;;;;5.07;2.50;;;10.70;11.50;;;;;;4971371;28;20108;-87
2024/02/05 00:59:18;;;;;;;4.43;1.77;;;10.70;12.70;;;;;;4937614;28;20059;-88
2024/02/05 01:01:45;;;;;;;4.85;1.73;;;10.70;14.00;;;;;;4970522;28;20540;-88
2024/02/05 01:04:13;;;;;;;4.57;1.38;;;10.70;9.00;;;;;;4947234;28;20410;-87
2024/02/05 01:06:40;;;;;;;6.53;2.05;;;10.60;10.40;;;;;;4926072;28;20059;-87
2024/02/05 01:09:09;;;;;;;3.65;1.58;;;10.60;10.90;;;;;;4947725;28;20395;-87
2024/02/05 01:11:37;;;;;;;5.95;2.15;;;10.60;11.70;;;;;;4971000;28;20105;-87
2024/02/05 01:14:05;;;;;;;3.63;1.63;;;10.60;12.30;;;;;;4941746;28;20054;-88
2024/02/05 01:16:32;;;;;;;5.90;1.55;;;10.60;14.70;;;;;;4935194;28;20422;-88
2024/02/05 01:19:02;;;;;;;9.10;3.28;;;10.60;14.10;;;;;;4952369;28;20137;-87
2024/02/05 01:21:30;;;;;;;8.93;2.33;;;10.60;13.10;;;;;;4937617;28;20151;-87
2024/02/05 01:23:57;;;;;;;3.92;1.90;;;10.60;14.20;;;;;;4975723;28;20089;-87
2024/02/05 01:26:24;;;;;;;8.50;2.53;;;10.60;14.50;;;;;;4942638;28;20046;-88
2024/02/05 01:28:51;;;;;;;7.93;3.55;;;10.60;14.20;;;;;;4944636;28;20105;-88
2024/02/05 01:31:18;;;;;;;3.10;1.77;;;10.60;9.30;;;;;;4959788;28;20054;-87
2024/02/05 01:33:45;;;;;;;3.45;1.52;;;10.60;8.00;;;;;;4944953;28;20050;-88
2024/02/05 01:36:13;;;;;;;3.63;1.40;;;10.60;15.60;;;;;;4949462;28;20056;-88
2024/02/05 01:38:43;;;;;;;2.83;1.23;;;10.60;14.80;;;;;;4976308;28;20124;-87
2024/02/05 01:41:10;;;;;;;3.78;2.05;;;10.60;15.50;;;;;;4954685;28;20077;-88
2024/02/05 01:43:37;;;;;;;2.85;1.27;;;10.60;8.80;;;;;;4979452;28;20093;-87
2024/02/05 01:46:05;;;;;;;1.60;1.00;;;10.60;14.90;;;;;;4944278;28;20054;-88
2024/02/05 01:48:33;;;;;;;9.45;3.13;;;10.60;15.00;;;;;;4942244;28;20046;-88
2024/02/05 01:51:01;;;;;;;8.45;2.80;;;10.60;15.70;;;;;;4945325;28;20046;-88
2024/02/05 01:53:28;;;;;;;10.43;2.45;;;10.60;16.80;;;;;;4940813;28;20054;-88
2024/02/05 01:55:55;;;;;;;5.15;1.77;;;10.60;10.70;;;;;;4932279;28;20093;-88
2024/02/05 01:58:22;;;;;;;5.18;1.80;;;10.70;13.50;;;;;;4946533;28;20050;-88
2024/02/05 02:00:49;;;;;;;6.15;1.70;;;10.70;15.40;;;;;;4945361;28;20552;-88
2024/02/05 02:03:18;;;;;;;4.85;1.98;;;10.70;15.20;;;;;;4977841;28;20133;-88
2024/02/05 02:05:44;;;;;;;4.32;1.70;;;10.70;14.50;;;;;;4943703;28;20686;-88
2024/02/05 02:08:12;;;;;;;2.63;1.25;;;10.70;14.70;;;;;;4970632;28;20061;-88
2024/02/05 02:10:39;;;;;;;4.63;1.48;;;10.70;16.20;;;;;;4944457;28;20054;-88
2024/02/05 02:13:06;;;;;;;4.88;1.83;;;10.70;15.30;;;;;;4976490;28;20073;-88
2024/02/05 02:15:33;;;;;;;7.10;2.00;;;10.70;15.60;;;;;;4940240;28;20523;-88
2024/02/05 02:18:02;;;;;;;6.50;1.80;;;10.70;16.60;;;;;;4965747;28;20158;-86
2024/02/05 02:20:29;;;;;;;3.20;1.58;;;10.70;11.60;;;;;;4944558;28;20329;-86
2024/02/05 02:23:05;;;;;;;6.57;2.13;;;10.70;9.80;;;;;;4944642;28;20042;-88
2024/02/05 02:25:33;;;;;;;5.38;2.65;;;10.70;16.00;;;;;;4942758;28;20077;-87
2024/02/05 02:28:00;;;;;;;5.72;2.28;;;10.70;12.40;;;;;;4980726;28;20057;-88
2024/02/05 02:30:27;;;;;;;8.32;2.75;;;10.60;16.90;;;;;;4950411;28;20370;-87
2024/02/05 02:33:13;;;;;;;4.22;1.95;;;10.60;8.60;;;;;;4941121;28;20055;-88
2024/02/05 02:35:54;;;;;;;4.05;1.77;;;10.60;10.80;;;;;;4973993;28;20138;-88
2024/02/05 02:38:36;;;;;;;4.65;1.85;;;10.60;11.40;;;;;;4960356;28;20062;-88
2024/02/05 02:41:06;;;;;;;3.65;1.88;;;10.50;10.30;;;;;;4945306;28;20047;-87
2024/02/05 02:43:36;;;;;;;5.13;1.60;;;10.50;14.00;;;;;;4954718;28;20102;-88
2024/02/05 02:46:03;;;;;;;7.07;2.00;;;10.50;11.00;;;;;;4946177;22;20062;-73
2024/02/05 02:48:30;;;;;;;4.28;2.00;;;10.50;14.10;;;;;;4992405;28;20092;-73
2024/02/05 02:50:57;;;;;;;4.70;1.73;;;10.50;15.30;;;;;;5010747;28;20132;-73
2024/02/05 02:53:24;;;;;;;3.78;1.88;;;10.40;16.40;;;;;;5045467;28;20052;-73
2024/02/05 02:55:50;;;;;;;3.10;1.30;;;10.50;7.70;;;;;;5046410;28;20045;-73
2024/02/05 02:58:17;;;;;;;3.22;1.58;;;10.40;14.70;;;;;;5046250;28;20045;-73
2024/02/05 03:00:44;;;;;;;4.30;1.73;;;10.40;12.50;;;;;;5030289;28;20052;-73
2024/02/05 03:03:11;;;;;;;5.80;1.70;;;10.40;9.90;;;;;;5046485;28;20044;-73
2024/02/05 03:05:38;;;;;;;4.22;2.10;;;10.40;18.10;;;;;;5029025;28;20080;-73
2024/02/05 03:08:06;;;;;;;4.57;1.67;;;10.40;7.80;;;;;;5044287;28;20894;-73
2024/02/05 03:10:32;;;;;;;2.80;1.40;;;10.40;10.70;;;;;;5028674;28;20406;-73
2024/02/05 03:12:59;;;;;;;4.85;1.55;;;10.40;10.50;;;;;;5045917;28;20099;-73
2024/02/05 03:15:26;;;;;;;6.20;1.63;;;10.30;13.80;;;;;;5045398;28;20127;-73
2024/02/05 03:17:55;;;;;;;3.38;1.45;;;10.30;11.10;;;;;;5043999;28;20056;-73
2024/02/05 03:20:35;;;;;;;6.47;2.40;;;10.30;11.00;;;;;;5020896;28;20131;-73
2024/02/05 03:23:03;;;;;;;3.17;1.52;;;10.20;11.00;;;;;;5024046;28;20048;-73
2024/02/05 03:25:37;;;;;;;5.90;2.40;;;10.20;5.00;;;;;;5013802;28;20552;-73
2024/02/05 03:28:04;;;;;;;4.95;1.55;;;10.20;7.50;;;;;;5025200;28;20049;-72
2024/02/05 03:30:32;;;;;;;5.35;2.65;;;10.20;5.20;;;;;;5046408;28;20152;-73
2024/02/05 03:33:00;;;;;;;6.22;2.10;;;10.20;13.70;;;;;;5011405;28;20053;-73
2024/02/05 03:35:27;;;;;;;6.95;2.72;;;10.10;6.60;;;;;;5046306;28;20049;-73
2024/02/05 03:37:54;;;;;;;8.32;2.58;;;10.10;5.40;;;;;;5044094;28;20131;-73
2024/02/05 03:40:21;;;;;;;6.22;3.20;;;10.10;7.50;;;;;;5024039;28;20171;-73
2024/02/05 03:42:49;;;;;;;8.23;2.72;;;10.10;6.90;;;;;;5006339;28;20083;-73
2024/02/05 03:45:16;;;;;;;3.50;1.50;;;10.00;12.30;;;;;;5007313;28;20080;-73
2024/02/05 03:47:46;;;;;;;8.07;2.45;;;10.00;13.10;;;;;;5011950;28;20085;-73
2024/02/05 03:50:13;;;;;;;9.55;2.10;;;9.90;12.30;;;;;;5002268;28;20111;-73
2024/02/05 03:52:45;;;;;;;4.47;2.45;;;9.90;14.00;;;;;;5006945;28;20492;-72
2024/02/05 03:55:12;;;;;;;8.73;2.67;;;9.90;13.20;;;;;;5025100;28;20124;-72
2024/02/05 03:57:59;;;;;;;3.10;1.55;;;9.90;5.30;;;;;;4998254;28;20088;-73
2024/02/05 04:00:26;;;;;;;4.43;1.70;;;9.80;6.60;;;;;;5024671;28;20081;-72
2024/02/05 04:02:53;;;;;;;3.85;1.33;;;9.80;10.20;;;;;;5024595;28;20068;-72
2024/02/05 04:05:20;;;;;;;4.63;2.03;;;9.80;11.10;;;;;;5025514;28;20077;-73
2024/02/05 04:07:47;;;;;;;3.03;1.38;;;9.80;8.80;;;;;;4990206;28;20053;-73
2024/02/05 04:10:14;;;;;;;4.88;2.03;;;9.80;10.60;;;;;;5025580;28;20172;-73
2024/02/05 04:12:41;;;;;;;4.07;2.13;;;9.80;14.50;;;;;;5023579;28;20132;-73
2024/02/05 04:15:10;;;;;;;5.72;1.80;;;9.80;9.60;;;;;;5006040;28;20057;-73
2024/02/05 04:17:37;;;;;;;5.68;1.95;;;9.80;11.20;;;;;;5015449;28;20667;-73
2024/02/05 04:20:05;;;;;;;6.43;2.45;;;9.80;8.80;;;;;;5025286;28;20045;-72
2024/02/05 04:22:33;;;;;;;4.70;1.50;;;9.80;10.40;;;;;;5024444;28;20066;-72
2024/02/05 04:24:59;;;;;;;3.08;1.35;;;9.80;15.40;;;;;;5023233;28;20049;-73
2024/02/05 04:27:26;;;;;;;3.05;1.65;;;9.80;15.30;;;;;;5024746;28;20081;-73
2024/02/05 04:29:55;;;;;;;3.67;2.05;;;9.80;13.90;;;;;;5025739;28;20103;-73
2024/02/05 04:32:23;;;;;;;6.57;1.73;;;9.80;12.70;;;;;;5024913;28;20045;-72
2024/02/05 04:34:50;;;;;;;3.05;1.27;;;9.80;11.70;;;;;;5025585;28;20055;-73
2024/02/05 04:37:17;;;;;;;2.28;1.20;;;9.70;14.70;;;;;;5039923;28;20136;-73
2024/02/05 04:39:44;;;;;;;4.90;1.63;;;9.80;11.20;;;;;;5019433;28;20049;-73
2024/02/05 04:42:10;;;;;;;3.08;1.33;;;9.70;13.60;;;;;;5014120;28;20060;-73
2024/02/05 04:44:37;;;;;;;5.82;1.65;;;9.70;13.80;;;;;;5023285;28;20046;-73
2024/02/05 04:47:04;;;;;;;7.55;2.03;;;9.70;12.30;;;;;;5034809;28;20146;-74
2024/02/05 04:49:31;;;;;;;5.72;2.10;;;9.60;10.80;;;;;;5020502;28;20050;-72
2024/02/05 04:52:00;;;;;;;3.22;1.63;;;9.60;11.00;;;;;;5018147;28;20492;-73
2024/02/05 04:54:29;;;;;;;4.22;2.22;;;9.60;15.40;;;;;;5011414;28;20056;-73
2024/02/05 04:56:56;;;;;;;2.22;1.20;;;9.60;16.80;;;;;;5009127;28;20080;-73
2024/02/05 04:59:23;;;;;;;2.33;1.42;;;9.60;12.30;;;;;;5028544;28;20103;-73
2024/02/05 05:01:49;;;;;;;3.90;1.60;;;9.60;14.80;;;;;;5025406;28;20076;-73
2024/02/05 05:04:17;;;;;;;4.28;1.73;;;9.60;16.60;;;;;;5027225;28;20399;-72
2024/02/05 05:06:44;;;;;;;6.57;1.58;;;9.60;14.60;;;;;;5027902;28;20076;-73
2024/02/05 05:09:11;;;;;;;5.75;2.20;;;9.60;20.90;;;;;;5027971;28;20503;-73
2024/02/05 05:11:37;;;;;;;3.15;1.45;;;9.60;21.70;;;;;;5028679;28;20053;-73
2024/02/05 05:14:05;;;;;;;4.40;1.63;;;9.60;21.30;;;;;;5026917;28;20045;-72
2024/02/05 05:16:31;;;;;;;3.72;1.52;;;9.60;17.80;;;;;;5042585;28;20724;-73
2024/02/05 05:19:01;;;;;;;3.17;1.60;;;9.60;19.10;;;;;;5027910;28;20053;-73
2024/02/05 05:21:28;;;;;;;2.67;1.30;;;9.60;23.10;;;;;;5026730;28;20136;-73
2024/02/05 05:23:55;;;;;;;3.50;1.60;;;9.60;22.80;;;;;;5026287;28;20077;-73
2024/02/05 05:26:23;;;;;;;2.95;1.13;;;9.50;22.60;;;;;;5028762;28;20076;-73
2024/02/05 05:28:51;;;;;;;4.85;1.75;;;9.60;20.60;;;;;;5028097;28;20103;-73
2024/02/05 05:31:17;;;;;;;4.70;1.50;;;9.50;22.40;;;;;;5027953;28;20053;-73
2024/02/05 05:33:45;;;;;;;4.03;1.58;;;9.50;21.00;;;;;;5010073;28;20934;-72
2024/02/05 05:36:12;;;;;;;2.90;1.50;;;9.50;19.00;;;;;;5024207;28;20057;-73
2024/02/05 05:38:39;;;;;;;3.25;1.55;;;9.50;20.30;;;;;;5025417;28;20060;-72
2024/02/05 05:41:06;;;;;;;2.65;1.27;;;9.50;21.10;;;;;;5008831;28;20050;-72
2024/02/05 05:43:33;;;;;;;2.60;1.13;;;9.50;19.80;;;;;;5024723;28;20050;-72
2024/02/05 05:45:59;;;;;;;3.42;1.52;;;9.50;20.10;;;;;;5024226;28;20088;-72
2024/02/05 05:48:27;;;;;;;2.35;1.00;;;9.50;20.80;;;;;;5026412;28;20052;-73
2024/02/05 05:50:54;;;;;;;4.35;1.80;;;9.60;21.80;;;;;;5046616;28;20053;-73
2024/02/05 05:53:21;;;;;;;3.97;1.58;;;9.50;24.00;;;;;;5026082;28;20095;-72
2024/02/05 05:55:49;;;;;;;5.13;1.90;;;9.60;25.40;;;;;;5045590;28;20102;-73
2024/02/05 05:58:16;;;;;;;2.00;1.30;;;9.50;22.20;;;;;;5043306;28;20045;-72
2024/02/05 06:00:43;;;;;;;5.28;2.15;;;9.60;34.80;;;;;;5046471;28;20049;-72
2024/02/05 06:03:11;;;;;;;3.60;1.50;;;9.60;27.40;;;;;;5032626;28;20060;-72
2024/02/05 06:05:38;;;;;;;2.45;1.10;;;9.60;24.00;;;;;;5042423;28;20040;-72
2024/02/05 06:08:05;;;;;;;4.75;1.58;;;9.60;27.60;;;;;;5023396;28;20053;-72
2024/02/05 06:10:33;;;;;;;2.17;1.10;;;9.60;26.80;;;;;;5045110;28;20499;-73
2024/02/05 06:13:03;;;;;;;2.20;1.25;;;9.60;19.40;;;;;;5044468;28;20041;-73
2024/02/05 06:15:30;;;;;;;5.50;1.52;;;9.60;18.90;;;;;;5028004;28;20120;-73
2024/02/05 06:17:57;;;;;;;4.90;2.05;;;9.60;16.10;;;;;;5043608;28;20107;-72
2024/02/05 06:20:24;;;;;;;4.25;1.85;;;9.60;16.20;;;;;;5044880;28;20088;-72
2024/02/05 06:22:50;;;;;;;5.82;2.35;;;9.60;15.40;;;;;;5038174;28;20716;-72
2024/02/05 06:25:17;;;;;;;5.68;2.03;;;9.50;15.50;;;;;;5039803;28;20048;-72
2024/02/05 06:27:44;;;;;;;4.55;1.90;;;9.60;24.00;;;;;;5018217;28;20052;-72
2024/02/05 06:30:12;;;;;;;3.30;1.60;;;9.50;14.70;;;;;;5039339;28;20056;-72
2024/02/05 06:32:38;;;;;;;2.72;1.63;;;9.50;14.30;;;;;;5043341;28;20457;-72
2024/02/05 06:35:06;;;;;;;1.95;1.15;;;9.50;23.80;;;;;;5042833;28;20052;-72
2024/02/05 06:37:33;;;;;;;2.05;1.20;;;9.50;20.70;;;;;;5023932;28;20529;-72
2024/02/05 06:39:59;;;;;;;1.50;1.10;;;9.50;21.30;;;;;;5035381;28;20433;-73
2024/02/05 06:42:26;;;;;;;2.70;1.08;;;9.50;23.00;;;;;;5042784;28;20053;-72
2024/02/05 06:44:53;;;;;;;2.33;1.23;;;9.60;21.30;;;;;;5042283;28;20041;-72
2024/02/05 06:47:20;;;;;;;3.28;1.52;;;9.50;18.90;;;;;;5041628;28;20065;-72
2024/02/05 06:49:47;;;;;;;6.20;1.70;;;9.50;25.00;;;;;;5038372;28;20120;-72
2024/02/05 06:52:15;;;;;;;2.25;1.42;;;9.50;19.10;;;;;;5042704;28;20404;-72
2024/02/05 06:54:42;;;;;;;3.67;1.92;;;9.50;17.70;;;;;;5041675;28;20649;-73
2024/02/05 06:57:09;;;;;;;2.05;1.10;;;9.50;22.00;;;;;;5038465;28;20037;-73
2024/02/05 06:59:36;;;;;;;2.75;1.30;;;9.50;22.20;;;;;;5023841;28;20052;-73
2024/02/05 07:02:03;;;;;;;2.05;0.93;;;9.50;22.60;;;;;;5044634;28;20071;-73
2024/02/05 07:04:30;;;;;;;5.35;1.98;;;9.50;19.70;;;;;;5043498;28;20434;-73
2024/02/05 07:06:58;;;;;;;3.95;1.83;;;9.50;20.50;;;;;;5042223;28;20085;-73
2024/02/05 07:09:26;;;;;;;5.43;1.85;;;9.50;19.10;;;;;;5043196;28;20045;-74
2024/02/05 07:11:53;;;;;;;3.58;1.45;;;9.50;23.10;;;;;;5024957;28;20503;-73
2024/02/05 07:14:19;;;;;;;5.88;1.55;;;9.40;21.40;;;;;;5008029;28;20093;-73
2024/02/05 07:16:46;;;;;;;3.30;1.55;;;9.50;20.60;;;;;;5019206;28;20068;-73
2024/02/05 07:19:13;;;;;;;7.03;1.58;;;9.50;27.50;;;;;;5040313;28;20107;-73
2024/02/05 07:21:40;;;;;;;5.10;1.60;;;9.50;17.20;;;;;;5040371;28;20053;-73
2024/02/05 07:24:07;;;;;;;5.32;2.13;;;9.50;13.20;;;;;;5038927;28;20048;-74
2024/02/05 07:26:34;;;;;;;4.25;2.08;;;9.40;14.20;;;;;;5042179;28;20052;-73
2024/02/05 07:29:01;;;;;;;2.67;1.30;;;9.50;16.60;;;;;;5009790;28;20445;-74
2024/02/05 07:31:28;;;;;;;1.88;1.20;;;9.50;12.20;;;;;;4990600;28;20049;-73
2024/02/05 07:33:55;;;;;;;3.10;1.35;;;9.50;18.20;;;;;;5040727;28;20108;-73
2024/02/05 07:36:21;;;;;;;2.13;1.10;;;9.50;16.10;;;;;;5042904;28;20055;-73
2024/02/05 07:38:48;;;;;;;2.97;1.35;;;9.50;27.20;;;;;;5039475;28;20052;-74
2024/02/05 07:41:15;;;;;;;2.55;1.20;;;9.50;17.20;;;;;;5004071;28;20049;-74
2024/02/05 07:43:42;;;;;;;4.28;1.45;;;9.50;22.20;;;;;;5026335;28;20056;-73
2024/02/05 07:46:09;;;;;;;2.08;1.30;;;9.50;22.60;;;;;;5040628;28;20124;-73
2024/02/05 07:48:36;;;;;;;1.90;1.33;;;9.40;32.00;;;;;;5009930;28;20072;-73
2024/02/05 07:51:03;;;;;;;3.85;1.13;;;9.40;26.00;;;;;;5009727;28;20049;-73
2024/02/05 07:53:30;;;;;;;3.42;1.27;;;9.40;26.30;;;;;;5042254;28;20045;-73
2024/02/05 07:55:57;;;;;;;3.35;1.30;;;9.40;33.30;;;;;;5043767;28;20379;-73
2024/02/05 07:58:24;;;;;;;4.43;1.75;;;9.30;18.30;;;;;;5042598;28;20132;-73
2024/02/05 08:00:51;;;;;;;2.88;1.20;;;9.30;28.60;;;;;;5043643;28;20379;-73
2024/02/05 08:03:18;;;;;;;4.22;1.70;;;9.30;19.90;;;;;;5025993;28;20140;-73
2024/02/05 08:05:45;;;;;;;3.13;1.45;;;9.30;20.50;;;;;;5044018;28;20057;-73
2024/02/05 08:08:12;;;;;;;3.38;1.25;;;9.30;20.40;;;;;;5039666;28;20060;-73
2024/02/05 08:10:39;;;;;;;5.20;2.65;;;9.30;18.30;;;;;;5040430;28;20079;-73
2024/02/05 08:13:06;;;;;;;4.80;1.85;;;9.30;20.20;;;;;;5005870;28;20053;-73
2024/02/05 08:15:33;;;;;;;3.70;1.50;;;9.40;23.70;;;;;;5006865;28;20041;-73
2024/02/05 08:18:00;;;;;;;4.72;1.30;;;9.40;20.30;;;;;;5042770;28;20053;-73
2024/02/05 08:20:28;;;;;;;3.00;1.27;;;9.40;21.10;;;;;;5043916;28;20469;-73
2024/02/05 08:22:55;;;;;;;2.42;1.20;;;9.40;20.50;;;;;;5041874;28;20055;-74
2024/02/05 08:25:22;;;;;;;3.88;1.30;;;9.50;23.50;;;;;;5026472;28;20119;-74
2024/02/05 08:27:48;;;;;;;3.67;2.08;;;9.50;24.00;;;;;;5043394;28;20494;-74
2024/02/05 08:30:15;;;;;;;4.80;1.55;;;9.50;18.50;;;;;;5024808;28;20256;-73
2024/02/05 08:32:42;;;;;;;5.80;2.22;;;9.50;19.90;;;;;;5044696;28;20049;-73
2024/02/05 08:35:09;;;;;;;4.10;1.38;;;9.50;19.20;;;;;;5013118;28;20045;-74
2024/02/05 08:37:36;;;;;;;3.28;1.77;;;9.50;20.40;;;;;;5047194;28;20075;-74
2024/02/05 08:40:04;;;;;;;7.30;1.73;;;9.50;19.80;;;;;;5045788;28;20041;-74
2024/02/05 08:42:33;;;;;;;7.18;1.88;;;9.60;15.60;;;;;;5047184;28;20049;-74
2024/02/05 08:45:00;;;;;;;5.28;1.80;;;9.60;17.40;;;;;;5047121;28;20107;-74
2024/02/05 08:47:31;;;;;;;5.32;1.83;;;9.60;22.30;;;;;;5030321;28;20110;-74
2024/02/05 08:49:58;;;;;;;5.03;1.90;;;9.70;22.30;;;;;;5013227;28;20052;-75
2024/02/05 08:52:26;;;;;;;2.90;1.75;;;9.70;23.00;;;;;;5027172;28;20586;-73
2024/02/05 08:54:53;;;;;;;4.05;2.22;;;9.70;26.10;;;;;;5007652;28;20052;-74
2024/02/05 08:57:20;;;;;;;4.97;1.48;;;9.70;14.00;;;;;;5040389;28;20406;-73
2024/02/05 08:59:50;;;;;;;5.20;1.75;;;9.80;17.30;;;;;;5039386;28;20148;-73
2024/02/05 09:02:18;;;;;;;3.80;2.00;;;9.80;13.70;;;;;;5038819;28;20564;-73
2024/02/05 09:04:47;;;;;;;3.70;1.52;;;9.80;13.70;;;;;;5021573;28;20079;-73
2024/02/05 09:07:14;;;;;;;3.08;2.03;;;9.90;20.60;;;;;;5038869;28;20094;-73
2024/02/05 09:09:41;;;;;;;4.88;1.40;;;10.00;11.70;;;;;;5040403;28;20576;-73
2024/02/05 09:12:08;;;;;;;3.03;1.40;;;10.00;12.90;;;;;;5006605;28;20148;-74
2024/02/05 09:14:35;;;;;;;5.53;2.25;;;10.00;16.50;;;;;;5041179;28;20450;-73
2024/02/05 09:17:03;;;;;;;2.40;1.30;;;10.00;11.20;;;;;;5023125;28;20084;-73
2024/02/05 09:19:32;;;;;;;3.63;1.58;;;10.10;10.10;;;;;;5021649;28;20052;-73
2024/02/05 09:21:59;;;;;;;3.63;2.13;;;10.10;11.80;;;;;;5021227;28;20513;-73
2024/02/05 09:24:26;;;;;;;6.40;2.78;;;10.00;12.30;;;;;;5020422;28;20053;-74
2024/02/05 09:26:53;;;;;;;3.33;2.10;;;10.10;9.10;;;;;;5039348;28;20067;-74
2024/02/05 09:29:21;;;;;;;5.85;2.10;;;10.10;3.80;;;;;;5038727;28;20045;-73
2024/02/05 09:31:49;;;;;;;7.88;2.30;;;10.00;4.40;;;;;;5031755;28;20151;-73
2024/02/05 09:34:16;;;;;;;3.42;1.95;;;10.00;4.40;;;;;;5022528;28;20139;-73
2024/02/05 09:36:44;;;;;;;4.03;2.00;;;10.00;5.00;;;;;;5021211;28;20622;-74
2024/02/05 09:39:11;;;;;;;5.43;2.17;;;10.00;2.50;;;;;;5038040;28;20682;-72
2024/02/05 09:41:39;;;;;;;7.60;3.50;;;10.00;10.50;;;;;;5033774;28;20090;-72
2024/02/05 09:44:06;;;;;;;5.28;2.45;;;10.10;6.50;;;;;;5019454;28;20615;-71
2024/02/05 09:46:34;;;;;;;4.72;2.15;;;10.20;9.10;;;;;;5017826;28;20053;-71
2024/02/05 09:49:02;;;;;;;5.90;2.78;;;10.20;6.50;;;;;;5016033;28;20840;-72
2024/02/05 09:51:32;;;;;;;4.95;1.95;;;10.30;8.10;;;;;;5017146;28;20132;-71
2024/02/05 09:54:00;;;;;;;5.32;1.90;;;10.40;7.80;;;;;;5016869;28;20052;-72
2024/02/05 09:56:43;;;;;;;3.75;1.77;;;10.40;7.40;;;;;;5018361;28;20604;-72
2024/02/05 09:59:10;;;;;;;7.03;1.70;;;10.50;7.50;;;;;;5017200;28;20048;-73
2024/02/05 10:01:38;;;;;;;4.82;1.63;;;10.60;6.80;;;;;;5018724;28;20671;-73
2024/02/05 10:04:08;;;;;;;3.28;1.80;;;10.70;8.30;;;;;;5020070;28;20053;-74
2024/02/05 10:06:38;;;;;;;5.00;2.78;;;10.70;6.70;;;;;;5022466;28;20060;-73
2024/02/05 10:09:06;;;;;;;6.22;2.28;;;10.70;4.80;;;;;;5020160;28;20116;-73
2024/02/05 10:11:40;;;;;;;4.20;1.92;;;10.70;14.80;;;;;;5023938;28;20053;-73
2024/02/05 10:14:07;;;;;;;3.00;1.65;;;10.70;3.00;;;;;;5024160;28;20053;-73
2024/02/05 10:16:34;;;;;;;6.25;2.10;;;10.80;3.30;;;;;;5025132;28;20592;-73
2024/02/05 10:19:04;;;;;;;4.45;2.00;;;10.90;13.00;;;;;;5022501;28;20049;-73
2024/02/05 10:21:32;;;;;;;4.88;2.20;;;10.90;8.10;;;;;;5022041;28;20095;-73
2024/02/05 10:23:59;;;;;;;5.30;2.35;;;10.90;1.00;;;;;;5019733;28;20049;-73
2024/02/05 10:26:26;;;;;;;4.82;2.38;;;11.00;11.40;;;;;;5022675;28;20065;-73
2024/02/05 10:28:53;;;;;;;5.60;1.85;;;11.00;9.10;;;;;;5020719;28;20049;-73
2024/02/05 10:31:20;;;;;;;4.90;1.98;;;11.00;11.90;;;;;;5023235;28;20049;-73
2024/02/05 10:33:52;;;;;;;5.53;1.70;;;11.10;1.00;;;;;;5021526;28;20061;-73
2024/02/05 10:36:19;;;;;;;4.05;1.48;;;11.00;1.00;;;;;;5020842;28;20041;-73
2024/02/05 10:38:46;;;;;;;3.58;1.20;;;11.10;3.80;;;;;;4987085;28;20045;-73
2024/02/05 10:41:14;;;;;;;2.75;1.58;;;11.10;1.00;;;;;;5004346;28;20075;-73
2024/02/05 10:43:45;;;;;;;3.95;2.00;;;11.20;1.00;;;;;;5024222;28;20435;-74
2024/02/05 10:46:12;;;;;;;2.67;1.48;;;11.20;1.00;;;;;;5026655;28;20050;-74
2024/02/05 10:48:42;;;;;;;5.80;1.83;;;11.20;1.00;;;;;;5045240;28;20053;-76
2024/02/05 10:51:09;;;;;;;3.92;2.42;;;11.30;1.00;;;;;;5027512;28;20155;-76
2024/02/05 10:53:36;;;;;;;2.85;1.60;;;11.30;1.00;;;;;;5010264;28;20048;-75
2024/02/05 10:56:04;;;;;;;6.90;1.83;;;11.30;1.00;;;;;;5009893;28;20511;-76
2024/02/05 10:58:31;;;;;;;3.55;1.65;;;11.40;1.00;;;;;;5009021;28;20078;-76
2024/02/05 11:00:59;;;;;;;3.35;1.60;;;11.40;1.00;;;;;;5041580;28;20076;-76
2024/02/05 11:03:26;;;;;;;3.10;1.50;;;11.40;1.00;;;;;;5007321;28;20077;-76
2024/02/05 11:05:54;;;;;;;3.42;1.92;;;11.40;1.00;;;;;;5007376;28;20064;-75
2024/02/05 11:08:24;;;;;;;3.00;1.38;;;11.50;1.00;;;;;;5024563;28;20048;-78
2024/02/05 11:10:55;;;;;;;3.45;1.25;;;11.50;1.00;;;;;;5010497;28;20052;-81
2024/02/05 11:13:29;;;;;;;3.00;1.15;;;11.40;1.00;;;;;;5042004;28;20119;-77
2024/02/05 11:15:57;;;;;;;1.98;1.10;;;11.40;1.00;;;;;;5007805;28;20083;-76
2024/02/05 11:18:41;;;;;;;2.70;1.52;;;11.50;1.00;;;;;;5025033;28;20052;-77
2024/02/05 11:21:08;;;;;;;2.50;1.15;;;11.60;1.00;;;;;;5007263;28;20051;-74
2024/02/05 11:23:35;;;;;;;1.58;1.00;;;11.60;1.00;;;;;;5005850;28;20078;-75
2024/02/05 11:26:01;;;;;;;2.38;0.77;;;11.70;1.00;;;;;;5007205;28;20045;-76
2024/02/05 11:28:28;;;;;;;3.17;0.77;;;11.70;1.00;;;;;;5009252;28;20529;-75
2024/02/05 11:31:00;;;;;;;0.77;0.77;;;11.80;7.70;;;;;;5003962;28;20631;-74
2024/02/05 11:33:31;;;;;;;1.05;0.60;;;11.80;11.00;;;;;;5010185;28;20056;-75
2024/02/05 11:36:01;;;;;;;1.80;1.02;;;11.80;6.60;;;;;;5008826;28;20052;-76
2024/02/05 11:38:28;;;;;;;1.15;0.75;;;11.80;7.30;;;;;;5040018;28;20499;-75
2024/02/05 11:40:55;;;;;;;1.63;0.85;;;11.80;6.20;;;;;;5023683;28;20060;-76
2024/02/05 11:43:23;;;;;;;1.55;0.77;;;11.80;5.80;;;;;;5006769;28;20068;-75
2024/02/05 11:45:54;;;;;;;1.13;0.60;;;11.70;5.10;;;;;;4991587;28;20128;-76
2024/02/05 11:48:21;;;;;;;1.58;0.80;;;11.70;9.40;;;;;;5010695;28;20197;-76
2024/02/05 11:50:48;;;;;;;1.88;0.75;;;11.70;6.50;;;;;;5026734;28;20084;-76
2024/02/05 11:53:16;;;;;;;1.38;0.90;;;11.70;7.60;;;;;;5024825;28;20071;-76
2024/02/05 11:55:43;;;;;;;0.50;0.50;;;11.60;10.70;;;;;;5026396;28;20142;-76
2024/02/05 11:58:10;;;;;;;0.70;0.60;;;11.70;10.40;;;;;;5009801;28;20052;-75
2024/02/05 12:00:37;;;;;;;0.57;0.55;;;11.80;5.00;;;;;;5040706;28;20131;-75
2024/02/05 12:03:06;;;;;;;1.00;0.63;;;11.90;6.60;;;;;;5040291;28;20052;-75
2024/02/05 12:05:34;;;;;;;0.50;0.50;;;12.00;5.70;;;;;;5043655;28;20466;-75
2024/02/05 12:08:01;;;;;;;0.40;0.40;;;12.10;1.00;;;;;;5039893;28;20521;-76
2024/02/05 12:10:29;;;;;;;0.52;0.50;;;12.20;1.00;;;;;;5023007;28;20056;-75
2024/02/05 12:12:56;;;;;;;1.35;1.05;;;12.20;1.00;;;;;;5008933;28;20434;-75
2024/02/05 12:15:25;;;;;;;0.93;0.65;;;12.10;1.00;;;;;;5043797;28;20466;-75
2024/02/05 12:18:02;;;;;;;1.63;0.63;;;12.10;6.70;;;;;;5025596;28;20053;-75
2024/02/05 12:20:29;;;;;;;0.88;0.60;;;12.10;8.80;;;;;;5009620;28;20208;-74
2024/02/05 12:22:57;;;;;;;1.00;0.93;;;12.10;5.30;;;;;;5007714;28;20076;-76
2024/02/05 12:25:23;;;;;;;0.75;0.55;;;12.10;5.60;;;;;;5021595;28;20052;-76
2024/02/05 12:28:07;;;;;;;0.63;0.60;;;12.10;7.60;;;;;;5021335;28;20045;-76
2024/02/05 12:30:34;;;;;;;0.47;0.47;;;12.00;7.20;;;;;;5021221;28;20089;-76
2024/02/05 12:33:01;;;;;;;0.95;0.75;;;12.00;13.20;;;;;;5019672;28;20049;-76
2024/02/05 12:35:28;;;;;;;0.60;0.50;;;12.10;3.20;;;;;;5020103;28;20130;-76
2024/02/05 12:37:56;;;;;;;0.63;0.40;;;12.10;2.60;;;;;;5018254;28;20145;-76
2024/02/05 12:40:23;;;;;;;0.40;0.40;;;12.30;2.50;;;;;;5018708;28;20061;-76
2024/02/05 12:42:50;;;;;;;0.60;0.50;;;12.30;5.00;;;;;;5018663;28;20115;-76
2024/02/05 12:45:18;;;;;;;0.98;0.50;;;12.30;2.50;;;;;;5036658;28;20606;-77
2024/02/05 12:47:47;;;;;;;0.60;0.60;;;12.30;5.20;;;;;;5035851;28;20060;-75
2024/02/05 12:50:14;;;;;;;2.20;0.80;;;12.20;2.30;;;;;;5019250;28;20052;-76
2024/02/05 12:52:42;;;;;;;0.82;0.75;;;12.20;14.80;;;;;;5018499;28;20077;-76
2024/02/05 12:55:08;;;;;;;0.65;0.60;;;12.20;14.20;;;;;;5017262;28;20049;-77
2024/02/05 12:57:35;;;;;;;1.02;0.60;;;12.20;13.80;;;;;;5017770;28;20498;-77